sensor_id;sensor_type;location;lat;lon;timestamp;P1;durP1;ratioP1;P2;durP2;ratioP2
9056;SDS011;4563;54.756;9.400;2023-05-18T00:02:26;6.10;;;0.87;;
9056;SDS011;4563;54.756;9.400;2023-05-18T00:04:53;6.80;;;1.00;;
9056;SDS011;4563;54.756;9.400;2023-05-18T00:07:19;9.57;;;1.00;;
9056;SDS011;4563;54.756;9.400;2023-05-18T00:09:48;5.80;;;1.00;;
9056;SDS011;4563;54.756;9.400;2023-05-18T00:12:14;3.77;;;1.03;;
9056;SDS011;4563;54.756;9.400;2023-05-18T00:14:41;5.63;;;0.63;;
9056;SDS011;4563;54.756;9.400;2023-05-18T00:17:08;9.83;;;1.10;;
9056;SDS011;4563;54.756;9.400;2023-05-18T00:19:35;7.60;;;0.73;;
9056;SDS011;4563;54.756;9.400;2023-05-18T00:22:02;3.93;;;0.80;;
9056;SDS011;4563;54.756;9.400;2023-05-18T00:24:31;7.00;;;0.83;;
9056;SDS011;4563;54.756;9.400;2023-05-18T00:27:00;6.83;;;0.77;;
9056;SDS011;4563;54.756;9.400;2023-05-18T00:29:27;6.67;;;0.93;;
9056;SDS011;4563;54.756;9.400;2023-05-18T00:31:56;11.73;;;1.03;;
9056;SDS011;4563;54.756;9.400;2023-05-18T00:34:23;7.23;;;0.87;;
9056;SDS011;4563;54.756;9.400;2023-05-18T00:36:50;7.43;;;1.00;;
9056;SDS011;4563;54.756;9.400;2023-05-18T00:39:17;3.70;;;0.43;;
9056;SDS011;4563;54.756;9.400;2023-05-18T00:41:45;8.07;;;1.20;;
9056;SDS011;4563;54.756;9.400;2023-05-18T00:44:13;3.80;;;0.97;;
9056;SDS011;4563;54.756;9.400;2023-05-18T00:46:40;7.47;;;1.23;;
9056;SDS011;4563;54.756;9.400;2023-05-18T00:49:08;7.77;;;0.90;;
9056;SDS011;4563;54.756;9.400;2023-05-18T00:51:35;5.37;;;0.87;;
9056;SDS011;4563;54.756;9.400;2023-05-18T00:54:03;11.83;;;1.03;;
9056;SDS011;4563;54.756;9.400;2023-05-18T00:56:32;5.40;;;0.83;;
9056;SDS011;4563;54.756;9.400;2023-05-18T00:59:00;6.93;;;0.80;;
9056;SDS011;4563;54.756;9.400;2023-05-18T01:01:29;9.13;;;0.90;;
9056;SDS011;4563;54.756;9.400;2023-05-18T01:03:58;5.77;;;1.00;;
9056;SDS011;4563;54.756;9.400;2023-05-18T01:06:28;9.73;;;1.00;;
9056;SDS011;4563;54.756;9.400;2023-05-18T01:08:56;7.20;;;0.97;;
9056;SDS011;4563;54.756;9.400;2023-05-18T01:11:25;9.53;;;0.93;;
9056;SDS011;4563;54.756;9.400;2023-05-18T01:14:03;4.30;;;0.77;;
9056;SDS011;4563;54.756;9.400;2023-05-18T01:16:38;7.20;;;0.73;;
9056;SDS011;4563;54.756;9.400;2023-05-18T01:19:12;5.43;;;0.70;;
9056;SDS011;4563;54.756;9.400;2023-05-18T01:21:55;7.63;;;0.73;;
9056;SDS011;4563;54.756;9.400;2023-05-18T01:24:29;6.47;;;0.97;;
9056;SDS011;4563;54.756;9.400;2023-05-18T01:27:02;4.70;;;0.93;;
9056;SDS011;4563;54.756;9.400;2023-05-18T01:29:32;4.83;;;0.73;;
9056;SDS011;4563;54.756;9.400;2023-05-18T01:32:00;5.30;;;0.70;;
9056;SDS011;4563;54.756;9.400;2023-05-18T01:34:27;4.57;;;0.60;;
9056;SDS011;4563;54.756;9.400;2023-05-18T01:36:54;3.30;;;0.90;;
9056;SDS011;4563;54.756;9.400;2023-05-18T01:39:21;3.33;;;0.90;;
9056;SDS011;4563;54.756;9.400;2023-05-18T01:41:50;6.50;;;0.70;;
9056;SDS011;4563;54.756;9.400;2023-05-18T01:44:22;5.80;;;0.93;;
9056;SDS011;4563;54.756;9.400;2023-05-18T01:46:56;7.30;;;0.90;;
9056;SDS011;4563;54.756;9.400;2023-05-18T01:49:28;4.90;;;0.80;;
9056;SDS011;4563;54.756;9.400;2023-05-18T01:51:57;4.30;;;0.70;;
9056;SDS011;4563;54.756;9.400;2023-05-18T01:54:29;4.93;;;0.70;;
9056;SDS011;4563;54.756;9.400;2023-05-18T01:56:58;7.33;;;0.80;;
9056;SDS011;4563;54.756;9.400;2023-05-18T01:59:28;4.77;;;0.87;;
9056;SDS011;4563;54.756;9.400;2023-05-18T02:01:59;6.13;;;1.13;;
9056;SDS011;4563;54.756;9.400;2023-05-18T02:04:26;7.60;;;0.83;;
9056;SDS011;4563;54.756;9.400;2023-05-18T02:06:53;2.50;;;0.60;;
9056;SDS011;4563;54.756;9.400;2023-05-18T02:09:20;4.87;;;0.90;;
9056;SDS011;4563;54.756;9.400;2023-05-18T02:11:47;5.17;;;0.70;;
9056;SDS011;4563;54.756;9.400;2023-05-18T02:14:14;4.50;;;0.73;;
9056;SDS011;4563;54.756;9.400;2023-05-18T02:16:42;11.10;;;1.10;;
9056;SDS011;4563;54.756;9.400;2023-05-18T02:19:11;3.63;;;0.90;;
9056;SDS011;4563;54.756;9.400;2023-05-18T02:21:38;2.10;;;0.50;;
9056;SDS011;4563;54.756;9.400;2023-05-18T02:24:06;4.43;;;0.80;;
9056;SDS011;4563;54.756;9.400;2023-05-18T02:26:33;2.67;;;0.87;;
9056;SDS011;4563;54.756;9.400;2023-05-18T02:29:01;6.83;;;0.90;;
9056;SDS011;4563;54.756;9.400;2023-05-18T02:31:28;5.57;;;0.70;;
9056;SDS011;4563;54.756;9.400;2023-05-18T02:33:57;4.00;;;0.70;;
9056;SDS011;4563;54.756;9.400;2023-05-18T02:36:24;2.27;;;0.80;;
9056;SDS011;4563;54.756;9.400;2023-05-18T02:38:51;4.23;;;0.83;;
9056;SDS011;4563;54.756;9.400;2023-05-18T02:41:17;6.00;;;0.80;;
9056;SDS011;4563;54.756;9.400;2023-05-18T02:43:45;2.73;;;0.50;;
9056;SDS011;4563;54.756;9.400;2023-05-18T02:46:11;2.90;;;0.70;;
9056;SDS011;4563;54.756;9.400;2023-05-18T02:48:38;1.97;;;1.00;;
9056;SDS011;4563;54.756;9.400;2023-05-18T02:51:11;5.20;;;0.70;;
9056;SDS011;4563;54.756;9.400;2023-05-18T02:53:38;8.33;;;1.17;;
9056;SDS011;4563;54.756;9.400;2023-05-18T02:56:08;13.97;;;0.90;;
9056;SDS011;4563;54.756;9.400;2023-05-18T02:58:36;4.83;;;0.67;;
9056;SDS011;4563;54.756;9.400;2023-05-18T03:01:03;8.23;;;0.90;;
9056;SDS011;4563;54.756;9.400;2023-05-18T03:03:34;4.20;;;0.87;;
9056;SDS011;4563;54.756;9.400;2023-05-18T03:06:00;10.07;;;0.90;;
9056;SDS011;4563;54.756;9.400;2023-05-18T03:08:28;7.93;;;0.90;;
9056;SDS011;4563;54.756;9.400;2023-05-18T03:10:55;4.73;;;0.80;;
9056;SDS011;4563;54.756;9.400;2023-05-18T03:13:23;3.83;;;1.10;;
9056;SDS011;4563;54.756;9.400;2023-05-18T03:15:50;2.47;;;0.70;;
9056;SDS011;4563;54.756;9.400;2023-05-18T03:18:17;5.47;;;0.70;;
9056;SDS011;4563;54.756;9.400;2023-05-18T03:20:44;3.13;;;0.80;;
9056;SDS011;4563;54.756;9.400;2023-05-18T03:23:10;5.70;;;0.90;;
9056;SDS011;4563;54.756;9.400;2023-05-18T03:25:39;7.37;;;1.03;;
9056;SDS011;4563;54.756;9.400;2023-05-18T03:28:07;3.37;;;1.00;;
9056;SDS011;4563;54.756;9.400;2023-05-18T03:30:34;3.67;;;0.70;;
9056;SDS011;4563;54.756;9.400;2023-05-18T03:33:01;2.10;;;0.50;;
9056;SDS011;4563;54.756;9.400;2023-05-18T03:35:27;3.73;;;0.70;;
9056;SDS011;4563;54.756;9.400;2023-05-18T03:37:55;5.87;;;1.03;;
9056;SDS011;4563;54.756;9.400;2023-05-18T03:40:22;6.13;;;0.63;;
9056;SDS011;4563;54.756;9.400;2023-05-18T03:42:51;5.90;;;0.70;;
9056;SDS011;4563;54.756;9.400;2023-05-18T03:45:18;3.83;;;0.80;;
9056;SDS011;4563;54.756;9.400;2023-05-18T03:47:44;4.30;;;0.90;;
9056;SDS011;4563;54.756;9.400;2023-05-18T03:50:11;4.53;;;1.07;;
9056;SDS011;4563;54.756;9.400;2023-05-18T03:52:38;5.67;;;1.10;;
9056;SDS011;4563;54.756;9.400;2023-05-18T03:55:05;4.00;;;0.67;;
9056;SDS011;4563;54.756;9.400;2023-05-18T03:57:32;5.30;;;0.80;;
9056;SDS011;4563;54.756;9.400;2023-05-18T04:00:01;3.20;;;0.70;;
9056;SDS011;4563;54.756;9.400;2023-05-18T04:02:32;3.60;;;0.80;;
9056;SDS011;4563;54.756;9.400;2023-05-18T04:05:00;3.53;;;0.57;;
9056;SDS011;4563;54.756;9.400;2023-05-18T04:07:27;4.97;;;1.10;;
9056;SDS011;4563;54.756;9.400;2023-05-18T04:09:54;6.30;;;0.80;;
9056;SDS011;4563;54.756;9.400;2023-05-18T04:12:21;5.47;;;0.67;;
9056;SDS011;4563;54.756;9.400;2023-05-18T04:14:48;3.73;;;0.80;;
9056;SDS011;4563;54.756;9.400;2023-05-18T04:17:17;3.63;;;0.90;;
9056;SDS011;4563;54.756;9.400;2023-05-18T04:19:46;5.27;;;1.13;;
9056;SDS011;4563;54.756;9.400;2023-05-18T04:22:13;5.90;;;0.70;;
9056;SDS011;4563;54.756;9.400;2023-05-18T04:24:41;5.10;;;1.00;;
9056;SDS011;4563;54.756;9.400;2023-05-18T04:27:09;7.30;;;1.03;;
9056;SDS011;4563;54.756;9.400;2023-05-18T04:29:37;4.77;;;0.90;;
9056;SDS011;4563;54.756;9.400;2023-05-18T04:32:04;7.10;;;0.67;;
9056;SDS011;4563;54.756;9.400;2023-05-18T04:34:33;7.17;;;0.73;;
9056;SDS011;4563;54.756;9.400;2023-05-18T04:37:01;4.33;;;1.20;;
9056;SDS011;4563;54.756;9.400;2023-05-18T04:39:29;3.97;;;0.70;;
9056;SDS011;4563;54.756;9.400;2023-05-18T04:41:56;6.80;;;0.70;;
9056;SDS011;4563;54.756;9.400;2023-05-18T04:44:23;9.00;;;0.80;;
9056;SDS011;4563;54.756;9.400;2023-05-18T04:46:51;6.23;;;1.10;;
9056;SDS011;4563;54.756;9.400;2023-05-18T04:49:18;4.53;;;1.07;;
9056;SDS011;4563;54.756;9.400;2023-05-18T04:51:48;5.93;;;1.20;;
9056;SDS011;4563;54.756;9.400;2023-05-18T04:54:19;3.60;;;0.70;;
9056;SDS011;4563;54.756;9.400;2023-05-18T04:56:47;5.67;;;0.90;;
9056;SDS011;4563;54.756;9.400;2023-05-18T04:59:14;3.37;;;1.00;;
9056;SDS011;4563;54.756;9.400;2023-05-18T05:01:41;1.70;;;0.50;;
9056;SDS011;4563;54.756;9.400;2023-05-18T05:04:08;1.57;;;0.67;;
9056;SDS011;4563;54.756;9.400;2023-05-18T05:06:35;5.20;;;0.93;;
9056;SDS011;4563;54.756;9.400;2023-05-18T05:09:03;6.90;;;0.90;;
9056;SDS011;4563;54.756;9.400;2023-05-18T05:11:30;4.07;;;1.03;;
9056;SDS011;4563;54.756;9.400;2023-05-18T05:13:57;2.77;;;0.60;;
9056;SDS011;4563;54.756;9.400;2023-05-18T05:16:24;8.47;;;1.13;;
9056;SDS011;4563;54.756;9.400;2023-05-18T05:18:50;6.40;;;1.20;;
9056;SDS011;4563;54.756;9.400;2023-05-18T05:21:17;3.77;;;0.70;;
9056;SDS011;4563;54.756;9.400;2023-05-18T05:23:44;6.27;;;0.70;;
9056;SDS011;4563;54.756;9.400;2023-05-18T05:26:12;4.70;;;1.00;;
9056;SDS011;4563;54.756;9.400;2023-05-18T05:28:39;3.87;;;1.03;;
9056;SDS011;4563;54.756;9.400;2023-05-18T05:31:06;5.20;;;0.73;;
9056;SDS011;4563;54.756;9.400;2023-05-18T05:33:33;2.87;;;0.70;;
9056;SDS011;4563;54.756;9.400;2023-05-18T05:36:00;6.33;;;1.00;;
9056;SDS011;4563;54.756;9.400;2023-05-18T05:38:28;5.47;;;0.87;;
9056;SDS011;4563;54.756;9.400;2023-05-18T05:40:55;3.60;;;0.90;;
9056;SDS011;4563;54.756;9.400;2023-05-18T05:43:24;9.57;;;0.93;;
9056;SDS011;4563;54.756;9.400;2023-05-18T05:45:50;6.37;;;0.70;;
9056;SDS011;4563;54.756;9.400;2023-05-18T05:48:17;6.97;;;0.70;;
9056;SDS011;4563;54.756;9.400;2023-05-18T05:50:44;9.63;;;1.70;;
9056;SDS011;4563;54.756;9.400;2023-05-18T05:53:11;6.23;;;1.10;;
9056;SDS011;4563;54.756;9.400;2023-05-18T05:55:41;5.70;;;1.03;;
9056;SDS011;4563;54.756;9.400;2023-05-18T05:58:08;7.77;;;0.83;;
9056;SDS011;4563;54.756;9.400;2023-05-18T06:00:36;6.07;;;0.80;;
9056;SDS011;4563;54.756;9.400;2023-05-18T06:03:03;3.57;;;0.83;;
9056;SDS011;4563;54.756;9.400;2023-05-18T06:05:30;7.13;;;1.40;;
9056;SDS011;4563;54.756;9.400;2023-05-18T06:07:57;7.37;;;1.30;;
9056;SDS011;4563;54.756;9.400;2023-05-18T06:10:23;3.13;;;0.80;;
9056;SDS011;4563;54.756;9.400;2023-05-18T06:12:50;3.50;;;0.57;;
9056;SDS011;4563;54.756;9.400;2023-05-18T06:15:17;6.30;;;0.73;;
9056;SDS011;4563;54.756;9.400;2023-05-18T06:17:46;3.07;;;0.60;;
9056;SDS011;4563;54.756;9.400;2023-05-18T06:20:12;6.10;;;0.90;;
9056;SDS011;4563;54.756;9.400;2023-05-18T06:22:39;3.47;;;0.80;;
9056;SDS011;4563;54.756;9.400;2023-05-18T06:25:07;6.80;;;0.90;;
9056;SDS011;4563;54.756;9.400;2023-05-18T06:27:35;3.87;;;0.70;;
9056;SDS011;4563;54.756;9.400;2023-05-18T06:30:03;7.53;;;0.80;;
9056;SDS011;4563;54.756;9.400;2023-05-18T06:32:32;2.90;;;0.67;;
9056;SDS011;4563;54.756;9.400;2023-05-18T06:35:01;5.83;;;0.80;;
9056;SDS011;4563;54.756;9.400;2023-05-18T06:37:28;5.73;;;0.80;;
9056;SDS011;4563;54.756;9.400;2023-05-18T06:39:58;5.57;;;0.70;;
9056;SDS011;4563;54.756;9.400;2023-05-18T06:42:25;1.73;;;0.50;;
9056;SDS011;4563;54.756;9.400;2023-05-18T06:44:52;9.20;;;0.90;;
9056;SDS011;4563;54.756;9.400;2023-05-18T06:47:18;3.33;;;0.63;;
9056;SDS011;4563;54.756;9.400;2023-05-18T06:49:45;2.77;;;0.80;;
9056;SDS011;4563;54.756;9.400;2023-05-18T06:52:13;3.97;;;0.73;;
9056;SDS011;4563;54.756;9.400;2023-05-18T06:54:40;5.37;;;0.80;;
9056;SDS011;4563;54.756;9.400;2023-05-18T06:57:07;6.37;;;0.90;;
9056;SDS011;4563;54.756;9.400;2023-05-18T06:59:34;5.20;;;0.80;;
9056;SDS011;4563;54.756;9.400;2023-05-18T07:02:01;3.57;;;0.73;;
9056;SDS011;4563;54.756;9.400;2023-05-18T07:04:28;6.60;;;0.70;;
9056;SDS011;4563;54.756;9.400;2023-05-18T07:06:55;3.43;;;0.80;;
9056;SDS011;4563;54.756;9.400;2023-05-18T07:09:23;3.10;;;0.53;;
9056;SDS011;4563;54.756;9.400;2023-05-18T07:11:50;2.63;;;1.03;;
9056;SDS011;4563;54.756;9.400;2023-05-18T07:14:17;3.77;;;0.67;;
9056;SDS011;4563;54.756;9.400;2023-05-18T07:16:44;4.83;;;1.03;;
9056;SDS011;4563;54.756;9.400;2023-05-18T07:19:11;2.50;;;0.70;;
9056;SDS011;4563;54.756;9.400;2023-05-18T07:21:38;3.63;;;0.50;;
9056;SDS011;4563;54.756;9.400;2023-05-18T07:24:05;5.90;;;0.80;;
9056;SDS011;4563;54.756;9.400;2023-05-18T07:26:33;4.23;;;0.70;;
9056;SDS011;4563;54.756;9.400;2023-05-18T07:29:00;6.37;;;0.80;;
9056;SDS011;4563;54.756;9.400;2023-05-18T07:31:27;4.77;;;0.83;;
9056;SDS011;4563;54.756;9.400;2023-05-18T07:33:55;4.93;;;0.90;;
9056;SDS011;4563;54.756;9.400;2023-05-18T07:36:22;6.23;;;1.00;;
9056;SDS011;4563;54.756;9.400;2023-05-18T07:38:49;3.33;;;0.70;;
9056;SDS011;4563;54.756;9.400;2023-05-18T07:41:19;3.43;;;0.73;;
9056;SDS011;4563;54.756;9.400;2023-05-18T07:43:49;5.37;;;0.70;;
9056;SDS011;4563;54.756;9.400;2023-05-18T07:46:16;1.37;;;0.40;;
9056;SDS011;4563;54.756;9.400;2023-05-18T07:48:43;3.10;;;0.87;;
9056;SDS011;4563;54.756;9.400;2023-05-18T07:51:10;3.40;;;0.60;;
9056;SDS011;4563;54.756;9.400;2023-05-18T07:53:37;4.47;;;0.70;;
9056;SDS011;4563;54.756;9.400;2023-05-18T07:56:05;2.63;;;0.70;;
9056;SDS011;4563;54.756;9.400;2023-05-18T07:58:32;3.77;;;0.70;;
9056;SDS011;4563;54.756;9.400;2023-05-18T08:01:00;4.33;;;0.70;;
9056;SDS011;4563;54.756;9.400;2023-05-18T08:03:27;4.17;;;0.60;;
9056;SDS011;4563;54.756;9.400;2023-05-18T08:05:54;4.27;;;0.63;;
9056;SDS011;4563;54.756;9.400;2023-05-18T08:08:21;3.07;;;0.73;;
9056;SDS011;4563;54.756;9.400;2023-05-18T08:10:49;3.60;;;0.70;;
9056;SDS011;4563;54.756;9.400;2023-05-18T08:13:16;1.93;;;0.70;;
9056;SDS011;4563;54.756;9.400;2023-05-18T08:15:45;1.77;;;0.50;;
9056;SDS011;4563;54.756;9.400;2023-05-18T08:18:13;4.00;;;0.90;;
9056;SDS011;4563;54.756;9.400;2023-05-18T08:20:40;3.30;;;0.77;;
9056;SDS011;4563;54.756;9.400;2023-05-18T08:23:07;2.53;;;0.67;;
9056;SDS011;4563;54.756;9.400;2023-05-18T08:25:34;1.80;;;0.60;;
9056;SDS011;4563;54.756;9.400;2023-05-18T08:28:02;5.13;;;0.80;;
9056;SDS011;4563;54.756;9.400;2023-05-18T08:30:29;6.23;;;0.80;;
9056;SDS011;4563;54.756;9.400;2023-05-18T08:32:56;1.87;;;0.77;;
9056;SDS011;4563;54.756;9.400;2023-05-18T08:35:24;3.30;;;0.70;;
9056;SDS011;4563;54.756;9.400;2023-05-18T08:37:51;9.00;;;0.80;;
9056;SDS011;4563;54.756;9.400;2023-05-18T08:40:17;5.10;;;0.70;;
9056;SDS011;4563;54.756;9.400;2023-05-18T08:42:46;2.03;;;0.67;;
9056;SDS011;4563;54.756;9.400;2023-05-18T08:45:19;1.83;;;0.60;;
9056;SDS011;4563;54.756;9.400;2023-05-18T08:47:49;4.13;;;0.60;;
9056;SDS011;4563;54.756;9.400;2023-05-18T08:50:16;2.20;;;0.70;;
9056;SDS011;4563;54.756;9.400;2023-05-18T08:52:47;2.50;;;0.60;;
9056;SDS011;4563;54.756;9.400;2023-05-18T08:55:19;2.57;;;0.97;;
9056;SDS011;4563;54.756;9.400;2023-05-18T08:57:49;3.70;;;0.70;;
9056;SDS011;4563;54.756;9.400;2023-05-18T09:00:20;2.33;;;0.70;;
9056;SDS011;4563;54.756;9.400;2023-05-18T09:02:47;3.80;;;0.70;;
9056;SDS011;4563;54.756;9.400;2023-05-18T09:05:15;6.27;;;0.70;;
9056;SDS011;4563;54.756;9.400;2023-05-18T09:07:43;5.63;;;2.00;;
9056;SDS011;4563;54.756;9.400;2023-05-18T09:10:12;3.17;;;1.10;;
9056;SDS011;4563;54.756;9.400;2023-05-18T09:12:40;7.83;;;0.93;;
9056;SDS011;4563;54.756;9.400;2023-05-18T09:15:10;4.53;;;0.97;;
9056;SDS011;4563;54.756;9.400;2023-05-18T09:17:38;2.60;;;0.60;;
9056;SDS011;4563;54.756;9.400;2023-05-18T09:20:05;1.37;;;0.50;;
9056;SDS011;4563;54.756;9.400;2023-05-18T09:22:33;3.47;;;0.90;;
9056;SDS011;4563;54.756;9.400;2023-05-18T09:25:00;5.27;;;0.80;;
9056;SDS011;4563;54.756;9.400;2023-05-18T09:27:29;1.50;;;0.50;;
9056;SDS011;4563;54.756;9.400;2023-05-18T09:29:57;1.87;;;0.50;;
9056;SDS011;4563;54.756;9.400;2023-05-18T09:32:24;1.63;;;0.50;;
9056;SDS011;4563;54.756;9.400;2023-05-18T09:34:51;2.93;;;0.80;;
9056;SDS011;4563;54.756;9.400;2023-05-18T09:37:19;1.73;;;0.63;;
9056;SDS011;4563;54.756;9.400;2023-05-18T09:39:56;6.23;;;0.93;;
9056;SDS011;4563;54.756;9.400;2023-05-18T09:42:25;3.17;;;0.90;;
9056;SDS011;4563;54.756;9.400;2023-05-18T09:44:54;2.90;;;0.80;;
9056;SDS011;4563;54.756;9.400;2023-05-18T09:47:21;1.40;;;0.60;;
9056;SDS011;4563;54.756;9.400;2023-05-18T09:49:48;2.90;;;0.67;;
9056;SDS011;4563;54.756;9.400;2023-05-18T09:52:15;1.43;;;0.53;;
9056;SDS011;4563;54.756;9.400;2023-05-18T09:54:41;3.93;;;0.97;;
9056;SDS011;4563;54.756;9.400;2023-05-18T09:57:08;1.95;;;0.70;;
9056;SDS011;4563;54.756;9.400;2023-05-18T09:59:35;3.60;;;0.80;;
9056;SDS011;4563;54.756;9.400;2023-05-18T10:02:04;1.50;;;0.60;;
9056;SDS011;4563;54.756;9.400;2023-05-18T10:04:35;2.42;;;0.50;;
9056;SDS011;4563;54.756;9.400;2023-05-18T10:07:08;2.03;;;0.50;;
9056;SDS011;4563;54.756;9.400;2023-05-18T10:09:36;2.63;;;0.60;;
9056;SDS011;4563;54.756;9.400;2023-05-18T10:12:08;3.63;;;0.80;;
9056;SDS011;4563;54.756;9.400;2023-05-18T10:14:36;2.53;;;0.60;;
9056;SDS011;4563;54.756;9.400;2023-05-18T10:17:06;2.25;;;0.60;;
9056;SDS011;4563;54.756;9.400;2023-05-18T10:19:33;3.45;;;0.90;;
9056;SDS011;4563;54.756;9.400;2023-05-18T10:22:01;4.68;;;0.80;;
9056;SDS011;4563;54.756;9.400;2023-05-18T10:24:28;4.43;;;0.90;;
9056;SDS011;4563;54.756;9.400;2023-05-18T10:27:00;2.50;;;0.50;;
9056;SDS011;4563;54.756;9.400;2023-05-18T10:29:31;3.55;;;0.80;;
9056;SDS011;4563;54.756;9.400;2023-05-18T10:31:59;3.70;;;0.90;;
9056;SDS011;4563;54.756;9.400;2023-05-18T10:34:29;5.15;;;0.80;;
9056;SDS011;4563;54.756;9.400;2023-05-18T10:36:58;2.97;;;0.90;;
9056;SDS011;4563;54.756;9.400;2023-05-18T10:39:30;1.80;;;0.60;;
9056;SDS011;4563;54.756;9.400;2023-05-18T10:41:58;5.82;;;0.80;;
9056;SDS011;4563;54.756;9.400;2023-05-18T10:44:27;3.20;;;0.90;;
9056;SDS011;4563;54.756;9.400;2023-05-18T10:46:55;2.85;;;0.75;;
9056;SDS011;4563;54.756;9.400;2023-05-18T10:49:22;4.18;;;1.13;;
9056;SDS011;4563;54.756;9.400;2023-05-18T10:51:53;3.53;;;0.70;;
9056;SDS011;4563;54.756;9.400;2023-05-18T10:54:22;2.92;;;0.60;;
9056;SDS011;4563;54.756;9.400;2023-05-18T10:56:50;3.72;;;0.60;;
9056;SDS011;4563;54.756;9.400;2023-05-18T10:59:18;2.83;;;0.70;;
9056;SDS011;4563;54.756;9.400;2023-05-18T11:01:47;2.63;;;0.60;;
9056;SDS011;4563;54.756;9.400;2023-05-18T11:04:21;2.75;;;0.80;;
9056;SDS011;4563;54.756;9.400;2023-05-18T11:06:54;2.30;;;0.77;;
9056;SDS011;4563;54.756;9.400;2023-05-18T11:09:23;3.35;;;0.73;;
9056;SDS011;4563;54.756;9.400;2023-05-18T11:11:50;2.65;;;0.70;;
9056;SDS011;4563;54.756;9.400;2023-05-18T11:14:23;3.70;;;1.10;;
9056;SDS011;4563;54.756;9.400;2023-05-18T11:16:52;1.77;;;0.68;;
9056;SDS011;4563;54.756;9.400;2023-05-18T11:19:23;2.70;;;0.85;;
9056;SDS011;4563;54.756;9.400;2023-05-18T11:21:51;1.67;;;0.80;;
9056;SDS011;4563;54.756;9.400;2023-05-18T11:24:21;3.88;;;0.73;;
9056;SDS011;4563;54.756;9.400;2023-05-18T11:26:50;2.50;;;0.57;;
9056;SDS011;4563;54.756;9.400;2023-05-18T11:29:19;3.95;;;0.93;;
9056;SDS011;4563;54.756;9.400;2023-05-18T11:31:48;2.97;;;0.80;;
9056;SDS011;4563;54.756;9.400;2023-05-18T11:37:09;1.00;;;0.70;;
9056;SDS011;4563;54.756;9.400;2023-05-18T11:39:37;2.65;;;1.20;;
9056;SDS011;4563;54.756;9.400;2023-05-18T11:42:05;3.08;;;0.82;;
9056;SDS011;4563;54.756;9.400;2023-05-18T11:44:33;1.70;;;0.70;;
9056;SDS011;4563;54.756;9.400;2023-05-18T11:47:01;2.47;;;0.90;;
9056;SDS011;4563;54.756;9.400;2023-05-18T11:49:29;2.22;;;0.90;;
9056;SDS011;4563;54.756;9.400;2023-05-18T11:52:01;1.98;;;0.73;;
9056;SDS011;4563;54.756;9.400;2023-05-18T11:54:34;3.90;;;0.70;;
9056;SDS011;4563;54.756;9.400;2023-05-18T11:57:07;3.63;;;1.25;;
9056;SDS011;4563;54.756;9.400;2023-05-18T11:59:36;1.92;;;0.98;;
9056;SDS011;4563;54.756;9.400;2023-05-18T12:02:04;4.00;;;1.08;;
9056;SDS011;4563;54.756;9.400;2023-05-18T12:04:32;1.38;;;0.70;;
9056;SDS011;4563;54.756;9.400;2023-05-18T12:07:03;2.40;;;0.73;;
9056;SDS011;4563;54.756;9.400;2023-05-18T12:09:33;2.55;;;0.88;;
9056;SDS011;4563;54.756;9.400;2023-05-18T12:12:00;0.90;;;0.70;;
9056;SDS011;4563;54.756;9.400;2023-05-18T12:14:27;1.80;;;0.70;;
9056;SDS011;4563;54.756;9.400;2023-05-18T12:16:55;2.33;;;0.95;;
9056;SDS011;4563;54.756;9.400;2023-05-18T12:19:24;2.50;;;1.10;;
9056;SDS011;4563;54.756;9.400;2023-05-18T12:21:51;3.00;;;0.90;;
9056;SDS011;4563;54.756;9.400;2023-05-18T12:24:18;1.02;;;0.68;;
9056;SDS011;4563;54.756;9.400;2023-05-18T12:26:46;2.28;;;0.80;;
9056;SDS011;4563;54.756;9.400;2023-05-18T12:29:14;3.67;;;1.00;;
9056;SDS011;4563;54.756;9.400;2023-05-18T12:31:46;4.22;;;0.90;;
9056;SDS011;4563;54.756;9.400;2023-05-18T12:34:14;2.13;;;0.90;;
9056;SDS011;4563;54.756;9.400;2023-05-18T12:36:41;2.92;;;1.15;;
9056;SDS011;4563;54.756;9.400;2023-05-18T12:39:17;1.75;;;0.90;;
9056;SDS011;4563;54.756;9.400;2023-05-18T12:41:44;1.45;;;0.70;;
9056;SDS011;4563;54.756;9.400;2023-05-18T12:44:17;4.30;;;1.00;;
9056;SDS011;4563;54.756;9.400;2023-05-18T12:46:44;3.85;;;0.93;;
9056;SDS011;4563;54.756;9.400;2023-05-18T12:49:11;1.85;;;0.90;;
9056;SDS011;4563;54.756;9.400;2023-05-18T12:51:38;3.20;;;1.08;;
9056;SDS011;4563;54.756;9.400;2023-05-18T12:54:05;4.32;;;1.20;;
9056;SDS011;4563;54.756;9.400;2023-05-18T12:56:50;2.63;;;0.93;;
9056;SDS011;4563;54.756;9.400;2023-05-18T12:59:23;3.53;;;1.38;;
9056;SDS011;4563;54.756;9.400;2023-05-18T13:01:51;1.88;;;1.17;;
9056;SDS011;4563;54.756;9.400;2023-05-18T13:04:18;5.10;;;1.35;;
9056;SDS011;4563;54.756;9.400;2023-05-18T13:06:45;2.00;;;1.30;;
9056;SDS011;4563;54.756;9.400;2023-05-18T13:09:13;2.65;;;1.60;;
9056;SDS011;4563;54.756;9.400;2023-05-18T13:11:45;2.45;;;1.55;;
9056;SDS011;4563;54.756;9.400;2023-05-18T13:14:18;3.03;;;0.90;;
9056;SDS011;4563;54.756;9.400;2023-05-18T13:16:48;4.07;;;1.30;;
9056;SDS011;4563;54.756;9.400;2023-05-18T13:19:16;1.55;;;0.98;;
9056;SDS011;4563;54.756;9.400;2023-05-18T13:21:43;3.42;;;1.20;;
9056;SDS011;4563;54.756;9.400;2023-05-18T13:24:10;6.78;;;1.00;;
9056;SDS011;4563;54.756;9.400;2023-05-18T13:26:38;3.00;;;1.48;;
9056;SDS011;4563;54.756;9.400;2023-05-18T13:29:05;4.55;;;1.17;;
9056;SDS011;4563;54.756;9.400;2023-05-18T13:31:34;1.42;;;1.15;;
9056;SDS011;4563;54.756;9.400;2023-05-18T13:34:01;3.47;;;1.45;;
9056;SDS011;4563;54.756;9.400;2023-05-18T13:36:28;3.25;;;1.50;;
9056;SDS011;4563;54.756;9.400;2023-05-18T13:38:57;4.15;;;1.20;;
9056;SDS011;4563;54.756;9.400;2023-05-18T13:41:25;3.47;;;1.53;;
9056;SDS011;4563;54.756;9.400;2023-05-18T13:43:52;3.15;;;1.33;;
9056;SDS011;4563;54.756;9.400;2023-05-18T13:46:19;2.88;;;1.52;;
9056;SDS011;4563;54.756;9.400;2023-05-18T13:48:47;2.65;;;1.40;;
9056;SDS011;4563;54.756;9.400;2023-05-18T13:51:14;2.90;;;1.30;;
9056;SDS011;4563;54.756;9.400;2023-05-18T13:53:41;5.10;;;1.60;;
9056;SDS011;4563;54.756;9.400;2023-05-18T13:56:08;4.13;;;1.70;;
9056;SDS011;4563;54.756;9.400;2023-05-18T13:58:35;3.60;;;1.50;;
9056;SDS011;4563;54.756;9.400;2023-05-18T14:01:04;2.53;;;1.50;;
9056;SDS011;4563;54.756;9.400;2023-05-18T14:03:33;4.07;;;1.40;;
9056;SDS011;4563;54.756;9.400;2023-05-18T14:06:02;3.50;;;1.80;;
9056;SDS011;4563;54.756;9.400;2023-05-18T14:08:29;4.53;;;1.57;;
9056;SDS011;4563;54.756;9.400;2023-05-18T14:10:56;2.40;;;1.20;;
9056;SDS011;4563;54.756;9.400;2023-05-18T14:13:22;2.50;;;1.50;;
9056;SDS011;4563;54.756;9.400;2023-05-18T14:15:49;4.27;;;1.40;;
9056;SDS011;4563;54.756;9.400;2023-05-18T14:18:16;3.43;;;1.47;;
9056;SDS011;4563;54.756;9.400;2023-05-18T14:20:43;2.73;;;1.40;;
9056;SDS011;4563;54.756;9.400;2023-05-18T14:23:13;5.03;;;1.70;;
9056;SDS011;4563;54.756;9.400;2023-05-18T14:25:40;4.90;;;1.70;;
9056;SDS011;4563;54.756;9.400;2023-05-18T14:28:09;2.63;;;1.77;;
9056;SDS011;4563;54.756;9.400;2023-05-18T14:30:37;4.17;;;2.07;;
9056;SDS011;4563;54.756;9.400;2023-05-18T14:33:04;1.93;;;1.50;;
9056;SDS011;4563;54.756;9.400;2023-05-18T14:35:31;2.73;;;1.60;;
9056;SDS011;4563;54.756;9.400;2023-05-18T14:37:58;4.53;;;1.47;;
9056;SDS011;4563;54.756;9.400;2023-05-18T14:40:26;4.67;;;1.57;;
9056;SDS011;4563;54.756;9.400;2023-05-18T14:42:53;3.80;;;1.60;;
9056;SDS011;4563;54.756;9.400;2023-05-18T14:45:19;5.33;;;1.53;;
9056;SDS011;4563;54.756;9.400;2023-05-18T14:47:46;7.77;;;2.23;;
9056;SDS011;4563;54.756;9.400;2023-05-18T14:50:13;2.77;;;1.70;;
9056;SDS011;4563;54.756;9.400;2023-05-18T14:52:40;3.67;;;1.50;;
9056;SDS011;4563;54.756;9.400;2023-05-18T14:55:07;3.03;;;1.50;;
9056;SDS011;4563;54.756;9.400;2023-05-18T14:57:36;4.20;;;1.47;;
9056;SDS011;4563;54.756;9.400;2023-05-18T15:00:03;3.27;;;1.33;;
9056;SDS011;4563;54.756;9.400;2023-05-18T15:02:30;2.07;;;1.43;;
9056;SDS011;4563;54.756;9.400;2023-05-18T15:04:57;2.60;;;1.52;;
9056;SDS011;4563;54.756;9.400;2023-05-18T15:07:24;1.73;;;1.53;;
9056;SDS011;4563;54.756;9.400;2023-05-18T15:09:51;2.10;;;1.43;;
9056;SDS011;4563;54.756;9.400;2023-05-18T15:12:19;4.93;;;1.43;;
9056;SDS011;4563;54.756;9.400;2023-05-18T15:14:48;2.30;;;1.43;;
9056;SDS011;4563;54.756;9.400;2023-05-18T15:17:15;3.80;;;1.57;;
9056;SDS011;4563;54.756;9.400;2023-05-18T15:19:42;4.20;;;1.70;;
9056;SDS011;4563;54.756;9.400;2023-05-18T15:22:09;2.33;;;1.60;;
9056;SDS011;4563;54.756;9.400;2023-05-18T15:24:36;4.97;;;1.70;;